Time;durP1;ratioP1;P1;durP2;ratioP2;P2;SDS_P1;SDS_P2;PMS_P1;PMS_P2;Temp;Humidity;BMP_temperature;BMP_pressure;BME280_temperature;BME280_humidity;BME280_pressure;Samples;Min_cycle;Max_cycle;Signal;HPM_P1;HPM_P2
2022/08/21 00:01:02;;;;;;;;;;;21.20;54.70;;;;;;6198871;23;20268;-91
2022/08/21 00:03:27;;;;;;;;;;;21.30;54.80;;;;;;6199411;23;19983;-91
2022/08/21 00:05:53;;;;;;;;;;;21.30;54.70;;;;;;6199518;23;19915;-91
2022/08/21 00:08:19;;;;;;;;;;;21.30;54.60;;;;;;6197426;23;20328;-91
2022/08/21 00:10:45;;;;;;;;;;;21.40;54.70;;;;;;6195887;23;19993;-92
2022/08/21 00:13:11;;;;;;;;;;;21.40;54.70;;;;;;6195274;23;19915;-91
2022/08/21 00:15:37;;;;;;;;;;;21.40;54.70;;;;;;6198246;23;20228;-91
2022/08/21 00:18:04;;;;;;;;;;;21.40;54.70;;;;;;6196471;23;19947;-90
2022/08/21 00:20:29;;;;;;;;;;;21.50;54.70;;;;;;6197660;23;20272;-91
2022/08/21 00:22:55;;;;;;;;;;;21.50;54.90;;;;;;6197766;23;19912;-91
2022/08/21 00:25:20;;;;;;;;;;;21.60;55.10;;;;;;6224992;23;19955;-91
2022/08/21 00:27:46;;;;;;;;;;;21.70;55.00;;;;;;6196599;23;20269;-91
2022/08/21 00:30:13;;;;;;;;;;;21.70;54.80;;;;;;6223968;23;20237;-90
2022/08/21 00:32:39;;;;;;;;;;;21.70;54.80;;;;;;6195950;23;20300;-91
2022/08/21 00:35:11;;;;;;;;;;;21.80;54.80;;;;;;6197218;23;19912;-90
2022/08/21 00:37:37;;;;;;;;;;;21.80;54.70;;;;;;6225499;23;19912;-91
2022/08/21 00:40:03;;;;;;;;;;;21.70;54.80;;;;;;6198798;23;19908;-90
2022/08/21 00:42:30;;;;;;;;;;;21.70;54.90;;;;;;6227862;23;19912;-91
2022/08/21 00:44:56;;;;;;;;;;;21.80;54.60;;;;;;6199821;23;20371;-92
2022/08/21 00:47:21;;;;;;;;;;;21.70;54.60;;;;;;6204093;23;19943;-91
2022/08/21 00:49:47;;;;;;;;;;;21.70;54.60;;;;;;6228885;23;19919;-91
2022/08/21 00:52:15;;;;;;;;;;;21.70;54.60;;;;;;6228455;23;19938;-91
2022/08/21 00:54:40;;;;;;;;;;;21.70;54.70;;;;;;6204237;23;19967;-90
2022/08/21 00:57:15;;;;;;;;;;;21.60;54.80;;;;;;6229845;23;19908;-91
2022/08/21 00:59:43;;;;;;;;;;;21.60;54.90;;;;;;6227781;23;19923;-91
2022/08/21 01:02:11;;;;;;;;;;;21.60;55.10;;;;;;6227657;23;19904;-90
2022/08/21 01:04:36;;;;;;;;;;;21.50;55.20;;;;;;6202252;23;19912;-90
2022/08/21 01:07:02;;;;;;;;;;;21.50;55.10;;;;;;6203280;23;19930;-91
2022/08/21 01:09:27;;;;;;;;;;;21.50;55.20;;;;;;6229194;23;19919;-91
2022/08/21 01:11:53;;;;;;;;;;;21.50;55.20;;;;;;6203799;23;20498;-91
2022/08/21 01:14:19;;;;;;;;;;;21.50;55.20;;;;;;6202760;23;19940;-90
2022/08/21 01:16:48;;;;;;;;;;;21.40;55.20;;;;;;6228239;23;19908;-91
2022/08/21 01:19:14;;;;;;;;;;;21.40;55.20;;;;;;6201609;23;20437;-91
2022/08/21 01:21:40;;;;;;;;;;;21.30;55.20;;;;;;6198525;23;20315;-91
2022/08/21 01:24:05;;;;;;;;;;;21.30;55.10;;;;;;6202648;23;19950;-91
2022/08/21 01:26:33;;;;;;;;;;;21.20;55.10;;;;;;6202605;23;19918;-91
2022/08/21 01:29:15;;;;;;;;;;;21.10;55.10;;;;;;6227602;23;19927;-90
2022/08/21 01:31:40;;;;;;;;;;;21.00;55.10;;;;;;6199580;23;19919;-92
2022/08/21 01:34:07;;;;;;;;;;;20.90;55.30;;;;;;6199354;23;20232;-91
2022/08/21 01:36:33;;;;;;;;;;;20.80;55.20;;;;;;6201927;23;19974;-91
2022/08/21 01:38:59;;;;;;;;;;;20.80;55.30;;;;;;6199155;23;19904;-91
2022/08/21 01:41:24;;;;;;;;;;;20.70;55.40;;;;;;6200679;23;19919;-91
2022/08/21 01:43:50;;;;;;;;;;;20.60;56.10;;;;;;6199045;23;19931;-91
2022/08/21 01:46:16;;;;;;;;;;;20.60;56.50;;;;;;6197380;23;20186;-91
2022/08/21 01:48:41;;;;;;;;;;;20.60;56.40;;;;;;6200414;23;19911;-91
2022/08/21 01:51:07;;;;;;;;;;;20.60;56.40;;;;;;6199466;23;19932;-92
2022/08/21 01:53:35;;;;;;;;;;;20.60;56.70;;;;;;6202877;23;19954;-92
2022/08/21 01:56:01;;;;;;;;;;;20.60;56.60;;;;;;6197013;23;20313;-90
2022/08/21 01:58:26;;;;;;;;;;;20.50;56.50;;;;;;6202415;23;19997;-89
2022/08/21 02:00:52;;;;;;;;;;;20.60;56.50;;;;;;6225433;23;19912;-90
2022/08/21 02:03:17;;;;;;;;;;;20.60;56.70;;;;;;6198152;23;19904;-91
2022/08/21 02:05:43;;;;;;;;;;;20.60;56.50;;;;;;6198318;23;19923;-90
2022/08/21 02:08:08;;;;;;;;;;;20.60;56.30;;;;;;6198262;23;19904;-91
2022/08/21 02:10:34;;;;;;;;;;;20.60;56.40;;;;;;6198950;23;19999;-90
2022/08/21 02:13:00;;;;;;;;;;;20.60;56.40;;;;;;6196796;23;19915;-90
2022/08/21 02:15:26;;;;;;;;;;;20.60;56.50;;;;;;6200916;23;20583;-90
2022/08/21 02:17:53;;;;;;;;;;;20.70;56.70;;;;;;6198727;23;19908;-90
2022/08/21 02:20:27;;;;;;;;;;;20.70;56.50;;;;;;6225745;23;19923;-91
2022/08/21 02:22:53;;;;;;;;;;;20.80;56.30;;;;;;6199393;23;19904;-91
2022/08/21 02:25:19;;;;;;;;;;;20.80;56.30;;;;;;6198246;23;20280;-91
2022/08/21 02:27:47;;;;;;;;;;;20.90;56.20;;;;;;6223247;23;19903;-91
2022/08/21 02:30:26;;;;;;;;;;;21.00;56.30;;;;;;6196903;23;19918;-91
2022/08/21 02:32:52;;;;;;;;;;;21.00;56.20;;;;;;6194807;23;19904;-91
2022/08/21 02:35:18;;;;;;;;;;;21.00;56.30;;;;;;6197049;23;19991;-91
2022/08/21 02:37:49;;;;;;;;;;;21.00;56.30;;;;;;6199106;23;19928;-91
2022/08/21 02:40:15;;;;;;;;;;;21.00;56.20;;;;;;6198842;23;19994;-91
2022/08/21 02:42:40;;;;;;;;;;;21.00;56.10;;;;;;6197301;23;19904;-91
2022/08/21 02:45:06;;;;;;;;;;;20.90;56.00;;;;;;6196974;23;19912;-92
2022/08/21 02:47:32;;;;;;;;;;;20.80;56.00;;;;;;6197326;23;19911;-91
2022/08/21 02:49:57;;;;;;;;;;;20.80;56.10;;;;;;6226265;23;20313;-91
2022/08/21 02:52:23;;;;;;;;;;;20.70;56.30;;;;;;6198154;23;19950;-91
2022/08/21 02:54:49;;;;;;;;;;;20.70;56.40;;;;;;6210568;23;19919;-91
2022/08/21 02:57:15;;;;;;;;;;;20.70;56.40;;;;;;6200449;23;19912;-91
2022/08/21 02:59:40;;;;;;;;;;;20.60;56.60;;;;;;6198356;23;19912;-91
2022/08/21 03:02:06;;;;;;;;;;;20.50;56.60;;;;;;6224713;23;20375;-91
2022/08/21 03:04:31;;;;;;;;;;;20.40;56.70;;;;;;6199178;23;19912;-92
2022/08/21 03:06:57;;;;;;;;;;;20.40;56.70;;;;;;6196090;23;19915;-91
2022/08/21 03:09:23;;;;;;;;;;;20.30;56.80;;;;;;6223847;23;19962;-91
2022/08/21 03:11:50;;;;;;;;;;;20.20;57.00;;;;;;6198290;23;20258;-91
2022/08/21 03:14:15;;;;;;;;;;;20.20;57.10;;;;;;6197500;23;19911;-91
2022/08/21 03:16:42;;;;;;;;;;;20.20;57.10;;;;;;6198593;23;19904;-92
2022/08/21 03:19:08;;;;;;;;;;;20.20;57.20;;;;;;6199708;23;19888;-92
2022/08/21 03:21:33;;;;;;;;;;;20.20;57.20;;;;;;6200471;23;19923;-91
2022/08/21 03:23:58;;;;;;;;;;;20.30;57.20;;;;;;6225831;23;19919;-92
2022/08/21 03:26:24;;;;;;;;;;;20.30;57.40;;;;;;6200713;23;19945;-92
2022/08/21 03:28:50;;;;;;;;;;;20.40;57.50;;;;;;6201344;23;19927;-92
2022/08/21 03:31:17;;;;;;;;;;;20.40;57.30;;;;;;6225568;23;19916;-92
2022/08/21 03:33:43;;;;;;;;;;;20.50;57.30;;;;;;6200516;23;19904;-92
2022/08/21 03:36:09;;;;;;;;;;;20.50;57.30;;;;;;6200405;23;19912;-92
2022/08/21 03:38:35;;;;;;;;;;;20.50;57.20;;;;;;6227093;23;19982;-92
2022/08/21 03:41:01;;;;;;;;;;;20.50;57.10;;;;;;6226513;23;20494;-92
2022/08/21 03:43:27;;;;;;;;;;;20.50;57.20;;;;;;6202046;23;19904;-92
2022/08/21 03:45:52;;;;;;;;;;;20.50;57.20;;;;;;6202157;23;19930;-93
2022/08/21 03:48:18;;;;;;;;;;;20.50;57.10;;;;;;6202250;23;19904;-92
2022/08/21 03:50:46;;;;;;;;;;;20.50;57.10;;;;;;6199759;23;19916;-92
2022/08/21 03:53:12;;;;;;;;;;;20.60;57.20;;;;;;6226943;23;19904;-93
2022/08/21 03:55:38;;;;;;;;;;;20.70;57.10;;;;;;6198277;23;19939;-92
2022/08/21 03:58:03;;;;;;;;;;;20.70;57.20;;;;;;6200194;23;19934;-93
2022/08/21 04:00:29;;;;;;;;;;;20.70;57.10;;;;;;6199106;23;20213;-91
2022/08/21 04:02:54;;;;;;;;;;;20.70;57.20;;;;;;6226596;23;19904;-92
2022/08/21 04:05:26;;;;;;;;;;;20.80;57.20;;;;;;6199665;23;19919;-92
2022/08/21 04:07:53;;;;;;;;;;;20.80;57.00;;;;;;6225907;23;19908;-92
2022/08/21 04:10:19;;;;;;;;;;;20.80;57.00;;;;;;6199574;23;19919;-92
2022/08/21 04:12:44;;;;;;;;;;;20.70;57.10;;;;;;6199291;23;19908;-93
2022/08/21 04:15:10;;;;;;;;;;;20.70;56.90;;;;;;6199749;23;19902;-92
2022/08/21 04:17:35;;;;;;;;;;;20.60;56.90;;;;;;6199562;23;19916;-92
2022/08/21 04:20:01;;;;;;;;;;;20.60;57.10;;;;;;6224278;23;19914;-92
2022/08/21 04:22:26;;;;;;;;;;;20.60;57.10;;;;;;6201640;23;19908;-92
2022/08/21 04:24:52;;;;;;;;;;;20.50;57.10;;;;;;6200493;23;19964;-92
2022/08/21 04:27:17;;;;;;;;;;;20.50;57.00;;;;;;6199600;22;19907;-92
2022/08/21 04:29:43;;;;;;;;;;;20.40;57.20;;;;;;6198409;23;19908;-91
2022/08/21 04:32:08;;;;;;;;;;;20.40;57.30;;;;;;6198755;23;19915;-91
2022/08/21 04:34:34;;;;;;;;;;;20.30;57.40;;;;;;6225454;23;20309;-92
2022/08/21 04:36:59;;;;;;;;;;;20.30;57.40;;;;;;6198385;23;19915;-92
2022/08/21 04:39:25;;;;;;;;;;;20.30;57.40;;;;;;6199413;23;20344;-92
2022/08/21 04:41:50;;;;;;;;;;;20.30;57.60;;;;;;6226814;23;19918;-92
2022/08/21 04:44:15;;;;;;;;;;;20.20;57.70;;;;;;6196651;23;20323;-92
2022/08/21 04:46:41;;;;;;;;;;;20.30;57.80;;;;;;6201241;23;19985;-92
2022/08/21 04:49:06;;;;;;;;;;;20.20;57.70;;;;;;6226938;23;19924;-92
2022/08/21 04:51:34;;;;;;;;;;;20.20;57.70;;;;;;6199936;23;20010;-92
2022/08/21 04:54:07;;;;;;;;;;;20.20;57.70;;;;;;6199774;23;19943;-92
2022/08/21 04:56:37;;;;;;;;;;;20.20;57.90;;;;;;6226263;23;19912;-91
2022/08/21 04:59:05;;;;;;;;;;;20.30;58.00;;;;;;6200123;23;19904;-91
2022/08/21 05:01:33;;;;;;;;;;;20.20;58.00;;;;;;6225814;23;19912;-92
2022/08/21 05:04:00;;;;;;;;;;;20.20;58.00;;;;;;6198238;23;19904;-91
2022/08/21 05:06:28;;;;;;;;;;;20.20;58.10;;;;;;6225560;23;19908;-92
2022/08/21 05:08:55;;;;;;;;;;;20.20;58.20;;;;;;6201017;23;19904;-92
2022/08/21 05:11:21;;;;;;;;;;;20.20;58.20;;;;;;6227423;23;19908;-93
2022/08/21 05:13:48;;;;;;;;;;;20.20;58.40;;;;;;6203870;23;19908;-92
2022/08/21 05:16:13;;;;;;;;;;;20.30;58.70;;;;;;6203437;23;20275;-92
2022/08/21 05:18:39;;;;;;;;;;;20.40;59.30;;;;;;6210859;23;19923;-91
2022/08/21 05:21:05;;;;;;;;;;;20.60;60.00;;;;;;6211165;23;20309;-91
2022/08/21 05:23:30;;;;;;;;;;;20.90;60.60;;;;;;6214100;23;19935;-92
2022/08/21 05:25:56;;;;;;;;;;;21.30;61.00;;;;;;6205404;23;19908;-92
2022/08/21 05:28:23;;;;;;;;;;;21.70;61.60;;;;;;6197717;23;19990;-92
2022/08/21 05:30:49;;;;;;;;;;;22.20;61.90;;;;;;6210023;23;20329;-92
2022/08/21 05:33:14;;;;;;;;;;;22.70;62.10;;;;;;6199346;23;19919;-92
2022/08/21 05:35:40;;;;;;;;;;;23.20;62.00;;;;;;6207845;23;19931;-92
2022/08/21 05:38:14;;;;;;;;;;;23.80;61.30;;;;;;6205396;23;20288;-92
2022/08/21 05:40:39;;;;;;;;;;;24.30;60.80;;;;;;6212953;23;19912;-92
2022/08/21 05:43:05;;;;;;;;;;;24.80;60.30;;;;;;6236867;23;19904;-93
2022/08/21 05:45:32;;;;;;;;;;;25.40;59.70;;;;;;6218529;22;19948;-92
2022/08/21 05:48:04;;;;;;;;;;;25.90;59.20;;;;;;6201679;23;19899;-92
2022/08/21 05:50:31;;;;;;;;;;;26.50;58.60;;;;;;6198878;23;19916;-93
2022/08/21 05:52:56;;;;;;;;;;;27.00;57.90;;;;;;6195281;23;19966;-93
2022/08/21 05:55:22;;;;;;;;;;;27.50;57.00;;;;;;6193911;23;19923;-92
2022/08/21 05:57:47;;;;;;;;;;;28.00;56.10;;;;;;6221387;23;19908;-91
2022/08/21 06:00:13;;;;;;;;;;;28.50;55.40;;;;;;6194715;23;19947;-90
2022/08/21 06:02:40;;;;;;;;;;;29.00;54.60;;;;;;6195618;23;19958;-91
2022/08/21 06:05:08;;;;;;;;;;;29.50;53.40;;;;;;6223686;23;19926;-90
2022/08/21 06:07:34;;;;;;;;;;;29.90;51.80;;;;;;6197992;23;19908;-92
2022/08/21 06:09:59;;;;;;;;;;;30.40;50.30;;;;;;6227163;23;19935;-91
2022/08/21 06:12:25;;;;;;;;;;;30.80;48.40;;;;;;6197675;23;19935;-91
2022/08/21 06:14:51;;;;;;;;;;;31.20;47.40;;;;;;6222765;23;19934;-91
2022/08/21 06:17:17;;;;;;;;;;;31.60;46.40;;;;;;6222771;23;19908;-91
2022/08/21 06:19:43;;;;;;;;;;;32.10;45.70;;;;;;6222479;23;19919;-91
2022/08/21 06:22:08;;;;;;;;;;;32.50;44.40;;;;;;6198395;23;20252;-94
2022/08/21 06:24:34;;;;;;;;;;;33.00;43.20;;;;;;6198646;23;19959;-90
2022/08/21 06:27:08;;;;;;;;;;;33.40;42.20;;;;;;6197653;23;20237;-91
2022/08/21 06:29:34;;;;;;;;;;;33.90;41.40;;;;;;6224195;23;19916;-91
2022/08/21 06:32:00;;;;;;;;;;;34.40;40.40;;;;;;6173193;23;19918;-91
2022/08/21 06:34:26;;;;;;;;;;;34.90;39.20;;;;;;6197610;23;20022;-91
2022/08/21 06:36:52;;;;;;;;;;;35.30;38.30;;;;;;6194955;23;19892;-92
2022/08/21 06:39:19;;;;;;;;;;;35.80;37.40;;;;;;6223676;23;19908;-92
2022/08/21 06:41:44;;;;;;;;;;;36.10;36.30;;;;;;6200943;23;19916;-91
2022/08/21 06:44:11;;;;;;;;;;;36.40;35.00;;;;;;6200234;23;19903;-91
2022/08/21 06:46:37;;;;;;;;;;;36.70;34.90;;;;;;6196524;23;19916;-92
2022/08/21 06:49:02;;;;;;;;;;;37.10;34.50;;;;;;6195351;23;19908;-92
2022/08/21 06:51:28;;;;;;;;;;;37.50;34.00;;;;;;6196249;23;19967;-92
2022/08/21 06:53:53;;;;;;;;;;;37.90;33.30;;;;;;6198851;23;19916;-91
2022/08/21 06:56:19;;;;;;;;;;;38.20;32.20;;;;;;6224748;23;19904;-91
2022/08/21 06:58:46;;;;;;;;;;;38.50;31.00;;;;;;6197027;23;19916;-92
2022/08/21 07:01:15;;;;;;;;;;;38.80;30.80;;;;;;6223247;23;19911;-92
2022/08/21 07:03:42;;;;;;;;;;;39.10;30.20;;;;;;6195831;23;19912;-91
2022/08/21 07:06:08;;;;;;;;;;;39.30;29.20;;;;;;6195801;23;19904;-92
2022/08/21 07:08:34;;;;;;;;;;;39.60;28.70;;;;;;6223012;23;19916;-92
2022/08/21 07:11:00;;;;;;;;;;;39.80;27.90;;;;;;6223456;23;19935;-92
2022/08/21 07:13:26;;;;;;;;;;;40.10;28.20;;;;;;6225784;23;19918;-91
2022/08/21 07:15:52;;;;;;;;;;;40.40;27.70;;;;;;6224145;23;19927;-91
2022/08/21 07:18:17;;;;;;;;;;;40.70;26.80;;;;;;6222683;23;19908;-91
2022/08/21 07:20:43;;;;;;;;;;;40.90;26.50;;;;;;6196031;23;19919;-92
2022/08/21 07:23:11;;;;;;;;;;;41.10;25.80;;;;;;6197760;23;19919;-91
2022/08/21 07:25:37;;;;;;;;;;;41.30;25.60;;;;;;6197372;23;19912;-91
2022/08/21 07:28:02;;;;;;;;;;;41.40;25.20;;;;;;6197004;23;20513;-92
2022/08/21 07:30:29;;;;;;;;;;;41.60;25.00;;;;;;6224763;23;19912;-90
2022/08/21 07:32:54;;;;;;;;;;;41.80;24.90;;;;;;6199198;23;19930;-92
2022/08/21 07:35:20;;;;;;;;;;;42.00;24.40;;;;;;6198200;23;19939;-92
2022/08/21 07:37:46;;;;;;;;;;;42.20;24.20;;;;;;6196904;23;19904;-92
2022/08/21 07:40:16;;;;;;;;;;;42.50;23.60;;;;;;6196568;23;19919;-92
2022/08/21 07:42:49;;;;;;;;;;;42.70;22.50;;;;;;6197580;23;19911;-92
2022/08/21 07:45:16;;;;;;;;;;;42.80;22.00;;;;;;6224578;23;20304;-92
2022/08/21 07:47:41;;;;;;;;;;;43.00;22.20;;;;;;6220811;23;20325;-92
2022/08/21 07:50:08;;;;;;;;;;;43.20;22.00;;;;;;6222808;23;19912;-92
2022/08/21 07:52:34;;;;;;;;;;;43.40;21.50;;;;;;6223466;23;19908;-92
2022/08/21 07:54:59;;;;;;;;;;;43.60;20.90;;;;;;6220748;23;19919;-91
2022/08/21 07:57:31;;;;;;;;;;;43.70;20.40;;;;;;6219896;23;19908;-94
2022/08/21 07:59:56;;;;;;;;;;;43.80;20.40;;;;;;6219779;23;20384;-93
2022/08/21 08:02:26;;;;;;;;;;;43.90;20.30;;;;;;6193476;23;19908;-93
2022/08/21 08:04:52;;;;;;;;;;;44.00;20.30;;;;;;6219475;23;19958;-93
2022/08/21 08:07:18;;;;;;;;;;;44.20;20.10;;;;;;6221154;23;19911;-92
2022/08/21 08:09:44;;;;;;;;;;;44.30;20.00;;;;;;6197198;23;19942;-93
2022/08/21 08:12:09;;;;;;;;;;;44.60;19.90;;;;;;6223386;23;19904;-93
2022/08/21 08:14:35;;;;;;;;;;;44.70;19.70;;;;;;6221891;23;19912;-93
2022/08/21 08:17:02;;;;;;;;;;;44.80;19.50;;;;;;6223050;23;19904;-92
2022/08/21 08:19:27;;;;;;;;;;;45.00;19.80;;;;;;6223259;23;19911;-93
2022/08/21 08:21:53;;;;;;;;;;;45.30;19.50;;;;;;6222321;23;19904;-93
2022/08/21 08:24:21;;;;;;;;;;;45.30;19.50;;;;;;6221332;23;19904;-92
2022/08/21 08:26:47;;;;;;;;;;;45.40;18.80;;;;;;6246166;23;19904;-93
2022/08/21 08:29:15;;;;;;;;;;;45.50;18.70;;;;;;6221077;23;19911;-92
2022/08/21 08:31:41;;;;;;;;;;;45.60;18.40;;;;;;6247380;23;19982;-92
2022/08/21 08:34:06;;;;;;;;;;;45.70;18.00;;;;;;6248984;23;19935;-93
2022/08/21 08:36:33;;;;;;;;;;;45.70;17.80;;;;;;6224004;23;19920;-92
2022/08/21 08:39:00;;;;;;;;;;;45.70;17.70;;;;;;6225783;23;19961;-92
2022/08/21 08:41:27;;;;;;;;;;;45.70;17.70;;;;;;6223357;23;20188;-94
2022/08/21 08:43:54;;;;;;;;;;;45.60;17.50;;;;;;6229243;23;19935;-93
2022/08/21 08:46:33;;;;;;;;;;;45.60;17.50;;;;;;6229674;23;19918;-95
2022/08/21 08:49:04;;;;;;;;;;;45.70;17.30;;;;;;6201001;23;20040;-93
2022/08/21 08:51:51;;;;;;;;;;;45.70;17.10;;;;;;6199997;23;19939;-93
2022/08/21 08:54:31;;;;;;;;;;;45.80;17.30;;;;;;6200085;23;19912;-94
2022/08/21 08:56:58;;;;;;;;;;;45.90;17.10;;;;;;6199967;23;19987;-93
2022/08/21 08:59:27;;;;;;;;;;;45.90;17.20;;;;;;6226779;23;20209;-92
2022/08/21 09:01:53;;;;;;;;;;;46.10;17.30;;;;;;6197667;23;19950;-93
2022/08/21 09:04:22;;;;;;;;;;;46.00;16.30;;;;;;6225868;23;19923;-93
2022/08/21 09:06:59;;;;;;;;;;;45.80;15.80;;;;;;6199452;23;19908;-92
2022/08/21 09:09:43;;;;;;;;;;;45.50;15.70;;;;;;6202114;23;19920;-93
2022/08/21 09:12:15;;;;;;;;;;;45.40;16.30;;;;;;6203886;23;19972;-94
2022/08/21 09:14:47;;;;;;;;;;;45.50;16.40;;;;;;6197943;23;19912;-93
2022/08/21 09:17:31;;;;;;;;;;;45.60;16.10;;;;;;6196394;23;19958;-93
2022/08/21 09:20:10;;;;;;;;;;;45.80;16.50;;;;;;6197240;23;19994;-93
2022/08/21 09:22:50;;;;;;;;;;;45.80;16.50;;;;;;6195109;23;19904;-93
2022/08/21 09:25:26;;;;;;;;;;;45.70;16.50;;;;;;6202107;23;19923;-93
2022/08/21 09:27:52;;;;;;;;;;;45.30;16.30;;;;;;6199685;23;19911;-95
2022/08/21 09:30:19;;;;;;;;;;;45.30;16.60;;;;;;6197733;23;20005;-94
2022/08/21 09:32:44;;;;;;;;;;;45.40;16.60;;;;;;6226315;23;19987;-93
2022/08/21 09:35:13;;;;;;;;;;;45.60;16.50;;;;;;6199837;23;19915;-93
2022/08/21 09:37:47;;;;;;;;;;;45.70;16.20;;;;;;6199942;23;19955;-92
2022/08/21 09:40:23;;;;;;;;;;;45.40;16.10;;;;;;6202641;23;19962;-93
2022/08/21 09:43:00;;;;;;;;;;;45.40;16.30;;;;;;6236190;23;19948;-94
2022/08/21 09:45:26;;;;;;;;;;;45.70;16.40;;;;;;6206213;23;20240;-95
2022/08/21 09:47:52;;;;;;;;;;;45.80;16.40;;;;;;6201434;23;19912;-94
2022/08/21 09:58:51;;;;;;;;;;;45.80;15.90;;;;;;6219782;22;19930;-93
2022/08/21 10:04:05;;;;;;;;;;;45.20;15.80;;;;;;6195917;23;20332;-93
2022/08/21 10:14:44;;;;;;;;;;;44.30;16.20;;;;;;6250808;22;19962;-80
